Llanelli Half Marathon
Skip Navigation Links
Results
Course Map
Past Results
Race Stats
Smartphone Results
18 February 2018
HyperLink
Click on your name for more detailed race data
Page 1 of 35 (1741 items)
[1]234567...32333435
Pos *
Bib No
Fav
Share
Photo
Print
Name
Gun Time
Chip Time
Category
Cat Pos
Gender
Gen Pos
Club
Comments
Pace
122Matthew CLOWES1:05:15.31:05:14.6SenM1Male1  12.0 m/hr
223Andrew DAVIES1:07:43.81:07:42.8SenM2Male2  11.6 m/hr
3137Joe BEECH1:11:58.71:11:55.9SenM3Male3  10.9 m/hr
4374Richard GARDINER1:12:25.71:12:23.9MV401Male4  10.9 m/hr
51007Luke WILLIAMS 1:12:43.31:12:40.7SenM4Male5  10.8 m/hr
610Paul GRAHAM1:13:06.81:13:05.4SenM5Male6PONTYPRIDD ROADENTS AC 10.8 m/hr
7696William MUNDAY1:13:34.71:13:33.3SenM6Male7  10.7 m/hr
8235John COLLIER1:13:45.91:13:43.8SenM7Male8  10.7 m/hr
9485Tim IVESON1:13:56.71:13:55.3SenM8Male9BUILTH AND DISTRICT RUNNING CLUB 10.6 m/hr
10602Simon LEWIS1:14:02.21:14:00.3MV402Male10PONTYPRIDD ROADENTS AC 10.6 m/hr
119Glyn FLETCHER1:14:11.01:14:09.5SenM9Male11LES CROUPIERS 10.6 m/hr
1215Caryl JONES1:14:23.61:14:21.6SenF1Female1SWANSEA HARRIERS  10.6 m/hr
1318Matthew REES1:14:35.91:14:34.7SenM10Male12SWANSEA HARRIERS  10.5 m/hr
1414Matthew JACKLIN1:15:43.11:15:41.7MV403Male13ABERDARE VALLEY AAC 10.4 m/hr
153089Nick SHIELS1:16:11.91:16:08.7SenM11Male14  10.3 m/hr
16580David KEENAN1:16:40.51:16:38.8SenM12Male15LLANELLI AAC 10.3 m/hr
177Clara EVANS 1:16:57.31:16:55.6SenF2Female2CARDIFF AC 10.2 m/hr
18189Craig BURROWS1:17:44.01:17:41.3SenM13Male16BRIDGEND ATHLETIC CLUB  10.1 m/hr
192941Adam Jelf1:17:51.81:17:48.2SenM14Male17  10.1 m/hr
203Natasha COCKRAM1:17:54.71:17:52.7SenF3Female3MICKY MORRIS RACING TEAM 10.1 m/hr
21839Nicholas SHEEHAN1:17:55.31:17:50.7SenM15Male18LLANELLI AAC 10.1 m/hr
221Alaw BEYNON-THOMAS1:18:11.11:18:09.3SenF4Female4SWANSEA HARRIERS  10.1 m/hr
23475Adam HUGHES1:18:31.11:18:28.6SenM16Male19  10.0 m/hr
24838Lee SHANNON 1:18:39.71:18:35.9SenM17Male20PEMBROKESHIRE HARRIERS 10.0 m/hr
251041Craig JONES1:18:57.61:18:51.1SenM18Male21  10.0 m/hr
262397Hannah GEORGE1:18:59.51:18:53.1FV351Female5  10.0 m/hr
27261Marc DAVIES1:19:01.01:18:55.3MV404Male22   9.9 m/hr
28327Stephen EVANS1:19:07.01:19:00.6SenM19Male23   9.9 m/hr
2917Doug NICHOLLS1:19:33.21:19:32.0SenM20Male24LES CROUPIERS  9.9 m/hr
3020Emma STEPTO1:19:33.41:19:32.2FV451Female6CORNWALL AC  9.9 m/hr
31795Matthew REYNOLDS1:19:37.01:19:30.0SenM21Male25PORT TALBOT HARRIERS   9.9 m/hr
32357Nathan FLEAR1:19:43.81:19:38.3SenM22Male263M GORSEINON ROAD RUNNERS   9.9 m/hr
33569David JONES 1:19:50.41:19:48.2SenM23Male27CARMARTHEN HARRIERS  9.8 m/hr
34673Gareth MORGAN1:20:08.21:20:03.6MV405Male28   9.8 m/hr
35994Ross WILLIAMS1:20:10.81:20:07.9SenM24Male29   9.8 m/hr
36170Andrew BRAIN1:20:24.81:20:21.9MV406Male30RUN 4ALL NEATH  9.8 m/hr
371047John MORAN1:20:50.61:20:48.3SenM25Male31SWANSEA HARRIERS   9.7 m/hr
38882Ross THOMAS1:21:01.61:20:56.4SenM26Male32CALDICOT RUNNING CLUB  9.7 m/hr
392512Jenny HOLMES1:21:02.11:20:48.7FV352Female7   9.7 m/hr
402964Danielle PORTER1:21:17.71:21:12.7SenF5Female8   9.7 m/hr
41938Rick VELATI 1:21:23.91:21:16.8SenM27Male33   9.7 m/hr
42466Andrew HOW1:21:57.61:21:55.5MV407Male34HENDRE LAKE RC  9.6 m/hr
43830Alex SCOTT1:22:32.41:22:29.0SenM28Male35   9.5 m/hr
441033Matt YELLAND1:22:35.91:22:33.4SenM29Male36AMMAN VALLEY HARRIERS  9.5 m/hr
45328Ian EVANS1:22:41.01:22:36.1SenM30Male37   9.5 m/hr
46979Martin WILLIAMS1:22:42.61:22:39.4MV501Male38LES CROUPIERS  9.5 m/hr
47428Mark HARRISON 1:22:48.01:22:43.6SenM31Male39   9.5 m/hr
48443Timothy HICKS1:23:06.41:22:57.9SenM32Male40   9.5 m/hr
49574Sam JOSEPH1:23:19.41:23:14.7SenM33Male41SWANSEA HARRIERS   9.4 m/hr
50653Neil MCLAUGHLIN 1:23:42.51:23:38.9MV408Male42   9.4 m/hr
Page 1 of 35 (1741 items)
[1]234567...32333435
fb

HyperLink Copyright (c) G Vincent, 2018